createdAt,value
2022-09-17T00:02:08.752Z,80.92
2022-09-17T00:04:35.090Z,81.95
2022-09-17T00:07:01.422Z,81.84
2022-09-17T00:09:28.131Z,81.52
2022-09-17T00:11:54.412Z,81.33
2022-09-17T00:14:20.737Z,80.79
2022-09-17T00:16:47.828Z,81.65
2022-09-17T00:19:18.678Z,80.68
2022-09-17T00:21:45.331Z,81.55
2022-09-17T00:24:12.256Z,82.13
2022-09-17T00:26:38.631Z,81.44
2022-09-17T00:29:05.641Z,82.00
2022-09-17T00:31:32.206Z,82.17
2022-09-17T00:33:59.495Z,81.39
2022-09-17T00:36:25.959Z,82.12
2022-09-17T00:38:53.347Z,81.42
2022-09-17T00:41:20.523Z,81.84
2022-09-17T00:43:49.000Z,82.68
2022-09-17T00:46:30.348Z,81.69
2022-09-17T00:48:58.280Z,83.00
2022-09-17T00:51:30.761Z,81.67
2022-09-17T00:53:57.317Z,81.51
2022-09-17T00:56:27.690Z,82.96
2022-09-17T00:58:54.717Z,81.33
2022-09-17T01:01:21.086Z,82.74
2022-09-17T01:03:47.590Z,82.35
2022-09-17T01:06:32.733Z,81.52
2022-09-17T01:09:15.372Z,82.47
2022-09-17T01:12:00.673Z,82.42
2022-09-17T01:14:40.434Z,81.47
2022-09-17T01:17:14.870Z,81.88
2022-09-17T01:19:59.867Z,82.15
2022-09-17T01:22:26.124Z,80.95
2022-09-17T01:25:10.920Z,81.24
2022-09-17T01:27:56.086Z,81.00
2022-09-17T01:30:41.354Z,81.58
2022-09-17T01:33:13.832Z,79.76
2022-09-17T01:35:48.756Z,80.57
2022-09-17T01:38:20.781Z,81.44
2022-09-17T01:41:07.646Z,80.33
2022-09-17T01:43:42.639Z,81.42
2022-09-17T01:46:09.009Z,80.95
2022-09-17T01:48:40.072Z,79.57
2022-09-17T01:51:06.439Z,80.28
2022-09-17T01:53:41.150Z,80.64
2022-09-17T01:56:09.417Z,82.04
2022-09-17T01:58:40.086Z,80.92
2022-09-17T02:01:07.950Z,81.51
2022-09-17T02:03:41.026Z,81.21
2022-09-17T02:06:10.228Z,82.36
2022-09-17T02:08:42.643Z,82.32
2022-09-17T02:11:13.691Z,81.80
2022-09-17T02:13:58.819Z,81.63
2022-09-17T02:16:28.750Z,81.98
2022-09-17T02:19:04.741Z,81.80
2022-09-17T02:21:49.669Z,81.83
2022-09-17T02:24:17.751Z,82.18
2022-09-17T02:26:58.377Z,82.49
2022-09-17T02:29:41.706Z,82.71
2022-09-17T02:32:08.732Z,82.44
2022-09-17T02:34:35.437Z,83.32
2022-09-17T02:37:03.137Z,82.35
2022-09-17T02:39:29.437Z,83.27
2022-09-17T02:42:07.892Z,82.67
2022-09-17T02:44:39.913Z,83.67
2022-09-17T02:47:15.410Z,83.02
2022-09-17T02:49:42.063Z,83.25
2022-09-17T02:52:27.319Z,82.98
2022-09-17T02:54:56.621Z,84.28
2022-09-17T02:57:35.318Z,82.73
2022-09-17T03:00:07.670Z,83.67
2022-09-17T03:02:37.253Z,83.56
2022-09-17T03:05:04.297Z,83.61
2022-09-17T03:07:32.557Z,82.30
2022-09-17T03:09:58.884Z,82.82
2022-09-17T03:12:26.755Z,82.85
2022-09-17T03:14:53.058Z,81.72
2022-09-17T03:17:19.343Z,81.26
2022-09-17T03:19:45.632Z,81.93
2022-09-17T03:22:12.478Z,82.02
2022-09-17T03:24:38.755Z,81.95
2022-09-17T03:27:05.182Z,81.55
2022-09-17T03:29:31.533Z,81.24
2022-09-17T03:31:57.898Z,80.54
2022-09-17T03:34:24.249Z,79.90
2022-09-17T03:36:50.589Z,79.66
2022-09-17T03:39:16.910Z,81.10
2022-09-17T03:41:43.197Z,80.96
2022-09-17T03:44:11.279Z,81.11
2022-09-17T03:46:37.663Z,80.52
2022-09-17T03:49:04.185Z,80.77
2022-09-17T03:51:31.012Z,80.12
2022-09-17T03:53:57.360Z,79.62
2022-09-17T03:56:23.732Z,79.31
2022-09-17T03:58:50.023Z,79.47
2022-09-17T04:01:16.387Z,79.20
2022-09-17T04:03:42.811Z,80.69
2022-09-17T04:06:09.110Z,80.33
2022-09-17T04:08:36.580Z,79.71
2022-09-17T04:11:02.892Z,80.34
2022-09-17T04:13:29.225Z,79.95
2022-09-17T04:15:55.575Z,80.79
2022-09-17T04:18:21.946Z,80.11
2022-09-17T04:20:48.288Z,80.41
2022-09-17T04:23:14.686Z,80.54
2022-09-17T04:25:41.025Z,82.06
2022-09-17T04:28:07.337Z,80.97
2022-09-17T04:30:33.632Z,81.51
2022-09-17T04:32:59.952Z,81.36
2022-09-17T04:35:26.359Z,80.75
2022-09-17T04:37:53.896Z,83.06
2022-09-17T04:40:20.573Z,81.82
2022-09-17T04:42:47.143Z,82.73
2022-09-17T04:45:13.476Z,83.39
2022-09-17T04:47:39.873Z,82.93
2022-09-17T04:50:06.760Z,82.13
2022-09-17T04:52:33.524Z,82.77
2022-09-17T04:54:59.797Z,81.36
2022-09-17T04:57:26.966Z,82.15
2022-09-17T04:59:53.377Z,83.21
2022-09-17T05:02:19.747Z,81.99
2022-09-17T05:04:46.080Z,83.05
2022-09-17T05:07:13.995Z,84.10
2022-09-17T05:09:40.402Z,83.33
2022-09-17T05:12:06.986Z,83.47
2022-09-17T05:14:33.260Z,82.03
2022-09-17T05:16:59.685Z,82.25
2022-09-17T05:19:26.020Z,81.97
2022-09-17T05:21:52.337Z,83.09
2022-09-17T05:24:18.629Z,82.61
2022-09-17T05:26:46.162Z,81.77
2022-09-17T05:29:12.523Z,82.34
2022-09-17T05:31:38.936Z,81.11
2022-09-17T05:34:05.402Z,81.82
2022-09-17T05:36:31.720Z,81.31
2022-09-17T05:38:58.048Z,80.95
2022-09-17T05:41:24.424Z,80.32
2022-09-17T05:43:51.170Z,81.09
2022-09-17T05:46:17.518Z,81.45
2022-09-17T05:48:44.119Z,82.00
2022-09-17T05:51:10.439Z,80.96
2022-09-17T05:53:36.735Z,81.52
2022-09-17T05:56:03.048Z,81.86
2022-09-17T05:58:29.568Z,81.33
2022-09-17T06:00:55.903Z,81.58
2022-09-17T06:03:24.885Z,80.54
2022-09-17T06:05:53.387Z,81.71
2022-09-17T06:08:19.685Z,80.97
2022-09-17T06:10:45.983Z,80.72
2022-09-17T06:13:12.294Z,80.75
2022-09-17T06:15:38.592Z,80.42
2022-09-17T06:18:05.035Z,81.15
2022-09-17T06:20:31.351Z,79.99
2022-09-17T06:22:58.156Z,80.81
2022-09-17T06:25:25.063Z,82.16
2022-09-17T06:27:51.408Z,81.71
2022-09-17T06:30:17.755Z,81.46
2022-09-17T06:32:44.242Z,81.03
2022-09-17T06:35:10.607Z,80.55
2022-09-17T06:37:40.151Z,80.93
2022-09-17T06:40:07.303Z,80.46
2022-09-17T06:42:33.669Z,80.32
2022-09-17T06:45:03.009Z,79.67
2022-09-17T06:47:33.550Z,80.12
2022-09-17T06:50:01.616Z,79.78
2022-09-17T06:52:28.178Z,80.07
2022-09-17T06:54:54.502Z,79.03
2022-09-17T06:57:20.802Z,78.99
2022-09-17T06:59:47.165Z,79.86
2022-09-17T07:02:13.589Z,80.34
2022-09-17T07:04:39.945Z,80.08
2022-09-17T07:07:06.345Z,79.70
2022-09-17T07:09:32.737Z,79.13
2022-09-17T07:11:59.234Z,78.94
2022-09-17T07:14:25.541Z,80.03
2022-09-17T07:16:52.680Z,78.03
2022-09-17T07:19:18.990Z,77.21
2022-09-17T07:21:47.710Z,76.83
2022-09-17T07:24:14.022Z,77.65
2022-09-17T07:26:40.301Z,76.84
2022-09-17T07:29:06.605Z,77.50
2022-09-17T07:31:32.985Z,77.03
2022-09-17T07:33:59.463Z,76.26
2022-09-17T07:36:25.936Z,75.88
2022-09-17T07:38:52.239Z,75.50
2022-09-17T07:41:18.895Z,76.94
2022-09-17T07:43:45.225Z,76.32
2022-09-17T07:46:16.259Z,76.69
2022-09-17T07:48:42.749Z,75.63
2022-09-17T07:51:14.061Z,74.90
2022-09-17T07:53:40.518Z,75.42
2022-09-17T07:56:11.696Z,75.96
2022-09-17T07:58:38.425Z,74.76
2022-09-17T08:01:06.901Z,75.20
2022-09-17T08:03:33.489Z,75.32
2022-09-17T08:06:04.217Z,74.84
2022-09-17T08:08:34.073Z,74.73
2022-09-17T08:11:01.742Z,74.62
2022-09-17T08:13:28.257Z,74.71
2022-09-17T08:15:57.853Z,74.48
2022-09-17T08:18:24.197Z,73.86
2022-09-17T08:20:50.488Z,73.59
2022-09-17T08:23:16.802Z,72.60
2022-09-17T08:25:43.103Z,73.07
2022-09-17T08:28:09.426Z,72.77
2022-09-17T08:30:35.814Z,71.59
2022-09-17T08:33:02.110Z,71.90
2022-09-17T08:35:28.396Z,72.73
2022-09-17T08:37:55.864Z,72.47
2022-09-17T08:40:22.978Z,72.75
2022-09-17T08:42:51.909Z,71.66
2022-09-17T08:45:19.159Z,70.96
2022-09-17T08:47:46.277Z,71.54
2022-09-17T08:50:14.903Z,70.77
2022-09-17T08:52:47.349Z,70.40
2022-09-17T08:55:19.889Z,70.52
2022-09-17T08:57:58.249Z,70.07
2022-09-17T09:00:24.856Z,70.27
2022-09-17T09:02:55.940Z,70.19
2022-09-17T09:05:33.174Z,70.96
2022-09-17T09:08:05.541Z,71.20
2022-09-17T09:10:39.077Z,69.42
2022-09-17T09:13:05.842Z,69.09
2022-09-17T09:15:42.620Z,69.49
2022-09-17T09:18:19.347Z,69.25
2022-09-17T09:20:46.564Z,69.21
2022-09-17T09:23:17.539Z,69.46
2022-09-17T09:25:52.062Z,68.18
2022-09-17T09:28:24.350Z,69.28
2022-09-17T09:30:50.643Z,68.30
2022-09-17T09:33:19.407Z,68.03
2022-09-17T09:35:45.878Z,68.04
2022-09-17T09:38:15.979Z,68.04
2022-09-17T09:40:53.484Z,68.07
2022-09-17T09:43:21.496Z,67.43
2022-09-17T09:45:53.914Z,67.34
2022-09-17T09:48:32.100Z,67.46
2022-09-17T09:51:18.637Z,68.83
2022-09-17T09:53:53.385Z,70.14
2022-09-17T09:56:38.095Z,69.25
2022-09-17T09:59:06.960Z,68.72
2022-09-17T10:01:34.365Z,67.83
2022-09-17T10:04:00.885Z,68.56
2022-09-17T10:06:29.792Z,68.50
2022-09-17T10:08:56.142Z,67.65
2022-09-17T10:11:29.401Z,67.92
2022-09-17T10:14:14.023Z,67.37
2022-09-17T10:16:40.447Z,66.96
2022-09-17T10:19:06.889Z,67.75
2022-09-17T10:21:33.245Z,68.31
2022-09-17T10:24:00.399Z,66.52
2022-09-17T10:26:29.493Z,67.41
2022-09-17T10:28:57.106Z,66.43
2022-09-17T10:31:23.606Z,66.76
2022-09-17T10:34:12.765Z,65.79
2022-09-17T10:36:39.524Z,66.08
2022-09-17T10:39:44.190Z,66.36
2022-09-17T10:42:17.389Z,66.04
2022-09-17T10:45:00.767Z,64.06
2022-09-17T10:47:37.455Z,63.58
2022-09-17T10:50:15.958Z,64.92
2022-09-17T10:52:47.940Z,64.14
2022-09-17T10:55:33.499Z,63.86
2022-09-17T10:58:04.112Z,63.99
2022-09-17T11:00:44.869Z,64.75
2022-09-17T11:03:14.157Z,63.73
2022-09-17T11:05:55.731Z,63.46
2022-09-17T11:08:38.618Z,63.77
2022-09-17T11:11:12.293Z,63.85
2022-09-17T11:14:01.097Z,63.68
2022-09-17T11:16:33.581Z,63.24
2022-09-17T11:19:05.972Z,62.57
2022-09-17T11:21:39.694Z,62.96
2022-09-17T11:24:05.984Z,60.78
2022-09-17T11:26:38.105Z,61.69
2022-09-17T11:29:20.557Z,61.41
2022-09-17T11:31:54.603Z,62.20
2022-09-17T11:34:20.938Z,61.04
2022-09-17T11:36:59.436Z,61.48
2022-09-17T11:39:30.973Z,62.53
2022-09-17T11:42:00.333Z,61.83
2022-09-17T11:44:32.410Z,63.24
2022-09-17T11:47:03.357Z,62.70
2022-09-17T11:49:30.011Z,62.03
2022-09-17T11:51:59.365Z,60.89
2022-09-17T11:54:25.688Z,60.89
2022-09-17T11:56:54.203Z,60.71
2022-09-17T11:59:20.587Z,60.36
2022-09-17T12:01:58.028Z,60.58
2022-09-17T12:04:40.660Z,61.27
2022-09-17T12:07:26.463Z,60.39
2022-09-17T12:10:11.592Z,60.41
2022-09-17T12:12:50.521Z,59.10
2022-09-17T12:15:28.081Z,58.92
2022-09-17T12:18:08.708Z,58.27
2022-09-17T12:20:42.624Z,59.38
2022-09-17T12:23:14.967Z,59.04
2022-09-17T12:26:04.306Z,58.32
2022-09-17T12:28:39.494Z,58.84
2022-09-17T12:31:11.534Z,58.61
2022-09-17T12:33:41.799Z,59.20
2022-09-17T12:36:28.409Z,59.46
2022-09-17T12:39:15.308Z,58.39
2022-09-17T12:41:59.992Z,59.42
2022-09-17T12:44:45.117Z,59.00
2022-09-17T12:47:37.514Z,59.80
2022-09-17T12:50:08.597Z,59.82
2022-09-17T12:52:52.643Z,58.00
2022-09-17T12:55:37.763Z,56.09
2022-09-17T12:58:39.641Z,56.67
2022-09-17T13:01:22.836Z,56.13
2022-09-17T13:03:54.398Z,56.22
2022-09-17T13:06:29.969Z,55.30
2022-09-17T13:09:02.319Z,56.06
2022-09-17T13:11:41.292Z,56.00
2022-09-17T13:14:27.409Z,56.42
2022-09-17T13:17:00.936Z,54.41
2022-09-17T13:19:44.002Z,53.97
2022-09-17T13:22:17.538Z,54.26
2022-09-17T13:24:47.144Z,53.57
2022-09-17T13:27:25.922Z,53.14
2022-09-17T13:29:55.176Z,53.71
2022-09-17T13:32:33.810Z,54.14
2022-09-17T13:35:12.445Z,54.60
2022-09-17T13:37:41.890Z,54.69
2022-09-17T13:40:23.722Z,55.27
2022-09-17T13:42:55.257Z,56.11
2022-09-17T13:45:22.700Z,57.48
2022-09-17T13:47:55.196Z,56.88
2022-09-17T13:50:30.257Z,56.83
2022-09-17T13:53:01.241Z,57.32
2022-09-17T13:55:44.625Z,55.84
2022-09-17T13:58:13.923Z,56.53
2022-09-17T14:00:52.619Z,57.00
2022-09-17T14:03:31.138Z,56.81
2022-09-17T14:06:26.570Z,55.94
2022-09-17T14:08:57.852Z,56.32
2022-09-17T14:11:28.088Z,56.49
2022-09-17T14:13:55.107Z,57.80
2022-09-17T14:16:41.770Z,57.63
2022-09-17T14:19:23.372Z,57.44
2022-09-17T14:22:01.911Z,56.92
2022-09-17T14:24:31.169Z,57.26
2022-09-17T14:27:00.534Z,58.19
2022-09-17T14:29:27.052Z,58.64
2022-09-17T14:31:53.404Z,58.42
2022-09-17T14:34:21.121Z,58.74
2022-09-17T14:36:47.859Z,59.10
2022-09-17T14:39:25.356Z,59.63
2022-09-17T14:41:54.563Z,60.32
2022-09-17T14:44:22.403Z,59.81
2022-09-17T14:46:54.535Z,59.91
2022-09-17T14:49:22.869Z,59.90
2022-09-17T14:51:58.610Z,59.92
2022-09-17T14:54:32.338Z,61.26
2022-09-17T14:57:10.518Z,60.26
2022-09-17T14:59:36.789Z,58.99
2022-09-17T15:02:03.279Z,59.02
2022-09-17T15:04:29.681Z,58.99
2022-09-17T15:07:08.997Z,58.57
2022-09-17T15:09:35.375Z,57.69
2022-09-17T15:12:02.073Z,58.45
2022-09-17T15:14:33.564Z,58.30
2022-09-17T15:17:01.849Z,58.88
2022-09-17T15:19:30.996Z,58.91
2022-09-17T15:21:57.466Z,59.96
2022-09-17T15:24:23.759Z,60.22
2022-09-17T15:26:53.322Z,60.74
2022-09-17T15:29:22.199Z,61.43
2022-09-17T15:31:48.863Z,60.47
2022-09-17T15:34:15.306Z,61.46
2022-09-17T15:37:01.559Z,61.89
2022-09-17T15:39:30.111Z,61.15
2022-09-17T15:41:57.082Z,61.82
2022-09-17T15:44:30.819Z,60.40
2022-09-17T15:47:17.218Z,61.65
2022-09-17T15:50:03.592Z,62.53
2022-09-17T15:52:34.138Z,61.96
2022-09-17T15:55:00.716Z,62.43
2022-09-17T15:57:30.530Z,62.24
2022-09-17T16:00:05.212Z,63.82
2022-09-17T16:02:32.385Z,63.03
2022-09-17T16:05:14.400Z,62.79
2022-09-17T16:07:41.784Z,64.31
2022-09-17T16:10:09.105Z,64.43
2022-09-17T16:12:36.009Z,65.13
2022-09-17T16:15:02.956Z,64.12
2022-09-17T16:17:49.593Z,64.35
2022-09-17T16:20:18.078Z,64.55
2022-09-17T16:22:45.167Z,64.73
2022-09-17T16:25:11.567Z,66.44
2022-09-17T16:27:42.660Z,66.61
2022-09-17T16:30:14.007Z,66.67
2022-09-17T16:32:40.285Z,67.11
2022-09-17T16:35:06.766Z,67.24
2022-09-17T16:37:33.056Z,67.26
2022-09-17T16:40:00.870Z,66.93
2022-09-17T16:42:30.142Z,67.28
2022-09-17T16:44:56.504Z,67.44
2022-09-17T16:47:22.899Z,67.45
2022-09-17T16:49:49.267Z,68.75
2022-09-17T16:52:15.563Z,67.76
2022-09-17T16:54:41.863Z,68.60
2022-09-17T16:57:08.216Z,68.52
2022-09-17T16:59:34.606Z,68.54
2022-09-17T17:02:01.385Z,67.35
2022-09-17T17:04:27.732Z,67.89
2022-09-17T17:06:54.049Z,67.38
2022-09-17T17:09:20.379Z,68.01
2022-09-17T17:11:46.739Z,67.83
2022-09-17T17:14:14.946Z,67.99
2022-09-17T17:16:43.441Z,67.03
2022-09-17T17:19:09.781Z,67.25
2022-09-17T17:21:36.227Z,67.12
2022-09-17T17:24:03.148Z,66.49
2022-09-17T17:26:29.534Z,66.89
2022-09-17T17:28:56.015Z,67.11
2022-09-17T17:31:22.366Z,67.08
2022-09-17T17:33:48.738Z,65.73
2022-09-17T17:36:15.085Z,67.28
2022-09-17T17:38:41.532Z,67.26
2022-09-17T17:41:09.389Z,67.38
2022-09-17T17:43:36.126Z,67.11
2022-09-17T17:46:05.085Z,67.74
2022-09-17T17:48:31.407Z,68.02
2022-09-17T17:51:07.823Z,67.74
2022-09-17T17:53:34.983Z,68.78
2022-09-17T17:56:02.785Z,68.05
2022-09-17T17:58:29.193Z,68.01
2022-09-17T18:00:56.203Z,69.11
2022-09-17T18:03:25.072Z,68.93
2022-09-17T18:05:58.454Z,68.31
2022-09-17T18:08:24.873Z,68.54
2022-09-17T18:10:55.458Z,69.04
2022-09-17T18:13:22.537Z,69.88
2022-09-17T18:15:52.960Z,69.58
2022-09-17T18:18:19.655Z,70.73
2022-09-17T18:20:46.193Z,70.16
2022-09-17T18:23:12.532Z,70.88
2022-09-17T18:25:38.829Z,71.18
2022-09-17T18:28:05.221Z,71.33
2022-09-17T18:30:32.504Z,71.86
2022-09-17T18:32:58.868Z,71.36
2022-09-17T18:35:25.371Z,71.27
2022-09-17T18:37:51.685Z,70.20
2022-09-17T18:40:18.017Z,69.87
2022-09-17T18:42:44.392Z,70.59
2022-09-17T18:45:10.878Z,70.91
2022-09-17T18:47:37.176Z,70.61
2022-09-17T18:50:03.632Z,71.25
2022-09-17T18:52:29.945Z,69.96
2022-09-17T18:54:56.224Z,71.35
2022-09-17T18:57:22.589Z,70.78
2022-09-17T18:59:48.958Z,70.67
2022-09-17T19:02:15.309Z,69.95
2022-09-17T19:04:41.682Z,69.68
2022-09-17T19:07:07.985Z,69.62
2022-09-17T19:09:34.290Z,69.77
2022-09-17T19:12:00.662Z,69.63
2022-09-17T19:14:27.015Z,70.50
2022-09-17T19:16:55.118Z,70.43
2022-09-17T19:19:21.458Z,70.17
2022-09-17T19:21:48.959Z,70.27
2022-09-17T19:24:15.266Z,70.49
2022-09-17T19:26:41.710Z,71.07
2022-09-17T19:29:09.015Z,71.78
2022-09-17T19:31:35.436Z,71.23
2022-09-17T19:34:02.049Z,72.49
2022-09-17T19:36:28.458Z,71.39
2022-09-17T19:38:54.988Z,71.94
2022-09-17T19:41:25.098Z,71.76
2022-09-17T19:43:52.240Z,72.24
2022-09-17T19:46:19.593Z,71.99
2022-09-17T19:48:46.993Z,72.51
2022-09-17T19:51:13.854Z,72.00
2022-09-17T19:53:40.473Z,71.86
2022-09-17T19:56:07.357Z,72.56
2022-09-17T19:58:33.692Z,72.34
2022-09-17T20:01:00.043Z,72.28
2022-09-17T20:03:26.824Z,72.06
2022-09-17T20:06:03.908Z,72.71
2022-09-17T20:08:30.590Z,72.20
2022-09-17T20:10:59.953Z,73.08
2022-09-17T20:13:26.343Z,73.80
2022-09-17T20:15:52.688Z,73.58
2022-09-17T20:18:23.343Z,72.80
2022-09-17T20:20:50.082Z,72.63
2022-09-17T20:23:16.609Z,72.26
2022-09-17T20:25:45.681Z,72.54
2022-09-17T20:28:11.978Z,73.91
2022-09-17T20:30:38.283Z,73.37
2022-09-17T20:33:04.676Z,74.49
2022-09-17T20:35:30.990Z,74.76
2022-09-17T20:40:44.138Z,73.98
2022-09-17T20:43:10.446Z,74.35
2022-09-17T20:45:36.812Z,75.80
2022-09-17T20:48:03.290Z,75.64
2022-09-17T20:50:29.595Z,76.77
2022-09-17T20:52:56.230Z,76.50
2022-09-17T20:55:22.540Z,76.67
2022-09-17T20:57:48.840Z,77.08
2022-09-17T21:00:20.624Z,77.17
2022-09-17T21:02:51.768Z,76.50
2022-09-17T21:05:18.470Z,77.27
2022-09-17T21:07:44.879Z,76.83
2022-09-17T21:10:12.425Z,76.51
2022-09-17T21:12:38.795Z,76.60
2022-09-17T21:15:05.390Z,75.99
2022-09-17T21:17:33.816Z,75.46
2022-09-17T21:20:00.119Z,76.06
2022-09-17T21:22:26.469Z,75.83
2022-09-17T21:24:52.826Z,75.53
2022-09-17T21:27:19.106Z,75.20
2022-09-17T21:29:45.421Z,75.56
2022-09-17T21:32:11.711Z,74.70
2022-09-17T21:34:38.072Z,75.01
2022-09-17T21:37:05.036Z,75.21
2022-09-17T21:39:34.947Z,75.07
2022-09-17T21:42:01.312Z,74.61
2022-09-17T21:44:27.576Z,75.13
2022-09-17T21:46:57.403Z,75.32
2022-09-17T21:49:24.787Z,75.78
2022-09-17T21:51:51.127Z,75.53
2022-09-17T21:54:17.946Z,76.49
2022-09-17T21:56:44.683Z,76.37
2022-09-17T21:59:12.465Z,76.76
2022-09-17T22:01:40.547Z,76.78
2022-09-17T22:04:08.331Z,77.22
2022-09-17T22:06:35.286Z,77.98
2022-09-17T22:09:02.349Z,78.16
2022-09-17T22:11:33.594Z,78.67
2022-09-17T22:14:25.969Z,78.66
2022-09-17T22:16:54.040Z,79.45
2022-09-17T22:19:21.151Z,79.10
2022-09-17T22:21:49.088Z,78.34
2022-09-17T22:24:15.998Z,78.19
2022-09-17T22:26:43.549Z,79.15
2022-09-17T22:29:14.394Z,79.57
2022-09-17T22:31:40.791Z,79.74
2022-09-17T22:34:08.306Z,79.49
2022-09-17T22:36:34.657Z,79.48
2022-09-17T22:39:01.088Z,78.67
2022-09-17T22:41:28.802Z,79.35
2022-09-17T22:44:00.141Z,79.41
2022-09-17T22:46:27.540Z,79.94
2022-09-17T22:48:54.300Z,79.52
2022-09-17T22:51:20.719Z,79.19
2022-09-17T22:53:47.091Z,79.35
2022-09-17T22:56:15.041Z,79.95
2022-09-17T22:58:41.803Z,80.03
2022-09-17T23:01:12.685Z,79.94
2022-09-17T23:03:40.152Z,80.36
2022-09-17T23:06:08.258Z,80.15
2022-09-17T23:08:35.123Z,79.81
2022-09-17T23:11:01.509Z,79.43
2022-09-17T23:13:29.304Z,79.74
2022-09-17T23:16:06.077Z,80.38
2022-09-17T23:18:32.494Z,79.42
2022-09-17T23:20:59.380Z,79.53
2022-09-17T23:23:26.292Z,78.83
2022-09-17T23:25:53.015Z,78.00
2022-09-17T23:28:19.306Z,77.49
2022-09-17T23:30:47.129Z,78.43
2022-09-17T23:33:14.559Z,77.13
2022-09-17T23:35:40.908Z,77.11
2022-09-17T23:38:07.305Z,76.47
2022-09-17T23:40:34.205Z,76.81
2022-09-17T23:43:00.667Z,76.65
2022-09-17T23:45:26.967Z,77.27
2022-09-17T23:47:53.443Z,75.92
2022-09-17T23:50:19.771Z,77.26
2022-09-17T23:52:46.051Z,76.55
2022-09-17T23:55:12.363Z,76.26
2022-09-17T23:57:39.065Z,77.53
